createdAt,value
2017-10-14T00:01:34.241Z,12.82
2017-10-14T00:04:01.737Z,9.00
2017-10-14T00:06:29.992Z,4.43
2017-10-14T00:08:57.449Z,7.18
2017-10-14T00:11:24.948Z,5.93
2017-10-14T00:13:52.423Z,8.50
2017-10-14T00:16:19.936Z,8.13
2017-10-14T00:18:47.403Z,21.35
2017-10-14T00:21:15.690Z,15.35
2017-10-14T00:23:43.938Z,7.18
2017-10-14T00:26:11.428Z,5.25
2017-10-14T00:28:39.684Z,5.78
2017-10-14T00:31:07.918Z,3.33
2017-10-14T00:33:35.420Z,5.80
2017-10-14T00:36:03.667Z,4.45
2017-10-14T00:38:31.149Z,8.55
2017-10-14T00:40:58.634Z,5.12
2017-10-14T00:43:26.118Z,5.50
2017-10-14T00:45:53.630Z,9.02
2017-10-14T00:48:21.121Z,2.47
2017-10-14T00:50:48.619Z,2.62
2017-10-14T00:53:16.083Z,6.05
2017-10-14T00:55:43.598Z,7.47
2017-10-14T00:58:11.064Z,3.00
2017-10-14T01:00:38.551Z,4.93
2017-10-14T01:03:06.020Z,4.43
2017-10-14T01:05:33.582Z,4.35
2017-10-14T01:08:01.044Z,8.10
2017-10-14T01:10:28.522Z,4.70
2017-10-14T01:12:56.777Z,4.07
2017-10-14T01:15:24.250Z,8.57
2017-10-14T01:17:51.772Z,4.68
2017-10-14T01:20:19.228Z,5.43
2017-10-14T01:22:46.710Z,6.32
2017-10-14T01:25:14.221Z,16.20
2017-10-14T01:27:41.687Z,6.30
2017-10-14T01:30:09.177Z,8.77
2017-10-14T01:32:36.673Z,7.80
2017-10-14T01:35:04.892Z,5.85
2017-10-14T01:37:32.390Z,6.80
2017-10-14T01:39:59.907Z,2.62
2017-10-14T01:42:27.404Z,9.70
2017-10-14T01:44:54.877Z,7.37
2017-10-14T01:47:23.144Z,12.20
2017-10-14T01:49:50.651Z,8.95
2017-10-14T01:52:18.141Z,9.70
2017-10-14T01:54:45.601Z,4.97
2017-10-14T01:57:13.079Z,5.72
2017-10-14T01:59:41.336Z,14.60
2017-10-14T02:02:08.839Z,4.57
2017-10-14T02:04:37.080Z,4.37
2017-10-14T02:07:04.555Z,3.67
2017-10-14T02:09:32.028Z,3.70
2017-10-14T02:12:00.275Z,3.75
2017-10-14T02:14:27.730Z,8.23
2017-10-14T02:16:55.223Z,6.00
2017-10-14T02:19:22.695Z,7.70
2017-10-14T02:21:50.179Z,15.82
2017-10-14T02:24:17.674Z,15.75
2017-10-14T02:26:45.176Z,10.20
2017-10-14T02:29:12.670Z,14.13
2017-10-14T02:31:40.141Z,5.05
2017-10-14T02:34:07.620Z,12.63
2017-10-14T02:36:35.871Z,8.50
2017-10-14T02:39:03.323Z,5.80
2017-10-14T02:41:30.813Z,7.53
2017-10-14T02:43:59.057Z,5.05
2017-10-14T02:46:26.536Z,4.40
2017-10-14T02:48:53.995Z,2.40
2017-10-14T02:51:21.520Z,3.37
2017-10-14T02:53:48.988Z,3.33
2017-10-14T02:56:16.457Z,3.72
2017-10-14T02:58:43.940Z,6.10
2017-10-14T03:01:12.164Z,4.32
2017-10-14T03:03:39.639Z,4.95
2017-10-14T03:06:07.118Z,2.72
2017-10-14T03:08:34.582Z,5.40
2017-10-14T03:11:02.053Z,8.02
2017-10-14T03:13:30.291Z,5.35
2017-10-14T03:15:57.783Z,4.45
2017-10-14T03:18:26.019Z,5.57
2017-10-14T03:20:53.509Z,4.25
2017-10-14T03:23:20.983Z,3.28
2017-10-14T03:25:49.243Z,8.15
2017-10-14T03:28:16.720Z,4.40
2017-10-14T03:30:44.979Z,3.00
2017-10-14T03:33:12.427Z,5.35
2017-10-14T03:35:39.900Z,6.37
2017-10-14T03:38:07.384Z,7.20
2017-10-14T03:40:34.840Z,5.97
2017-10-14T03:43:02.323Z,8.85
2017-10-14T03:45:29.824Z,4.18
2017-10-14T03:47:57.306Z,3.78
2017-10-14T03:50:25.532Z,6.20
2017-10-14T03:52:53.039Z,4.10
2017-10-14T03:55:21.280Z,9.07
2017-10-14T03:57:48.761Z,8.15
2017-10-14T04:00:16.268Z,12.50
2017-10-14T04:02:43.724Z,6.00
2017-10-14T04:05:11.231Z,3.75
2017-10-14T04:07:38.680Z,9.07
2017-10-14T04:10:06.155Z,2.22
2017-10-14T04:12:34.428Z,2.55
2017-10-14T04:15:01.907Z,2.70
2017-10-14T04:17:30.156Z,5.35
2017-10-14T04:19:57.649Z,11.60
2017-10-14T04:22:25.141Z,4.05
2017-10-14T04:24:52.612Z,2.22
2017-10-14T04:27:20.839Z,4.82
2017-10-14T04:29:48.343Z,2.90
2017-10-14T04:32:15.823Z,5.95
2017-10-14T04:34:43.319Z,2.97
2017-10-14T04:37:10.803Z,6.65
2017-10-14T04:39:38.312Z,6.72
2017-10-14T04:42:05.788Z,2.47
2017-10-14T04:44:34.028Z,4.28
2017-10-14T04:47:01.505Z,4.82
2017-10-14T04:49:28.976Z,2.97
2017-10-14T04:51:57.208Z,7.28
2017-10-14T04:54:24.711Z,5.65
2017-10-14T04:56:52.958Z,2.80
2017-10-14T04:59:20.422Z,4.05
2017-10-14T05:01:47.918Z,10.13
2017-10-14T05:04:15.385Z,2.37
2017-10-14T05:06:42.888Z,18.17
2017-10-14T05:09:10.332Z,2.35
2017-10-14T05:11:37.839Z,2.60
2017-10-14T05:14:06.081Z,3.45
2017-10-14T05:16:33.546Z,3.78
2017-10-14T05:19:01.026Z,6.80
2017-10-14T05:21:29.272Z,8.10
2017-10-14T05:23:56.740Z,4.80
2017-10-14T05:26:24.239Z,5.03
2017-10-14T05:28:51.714Z,4.22
2017-10-14T05:31:19.176Z,2.90
2017-10-14T05:33:46.670Z,3.42
2017-10-14T05:36:14.153Z,7.62
2017-10-14T05:38:42.369Z,5.35
2017-10-14T05:41:09.860Z,51.42
2017-10-14T05:43:37.336Z,5.70
2017-10-14T05:46:05.560Z,4.00
2017-10-14T05:48:33.049Z,3.97
2017-10-14T05:51:00.526Z,5.53
2017-10-14T05:53:28.024Z,6.82
2017-10-14T05:55:55.495Z,8.48
2017-10-14T05:58:22.950Z,10.88
2017-10-14T06:00:50.436Z,7.93
2017-10-14T06:03:17.923Z,9.43
2017-10-14T06:05:46.184Z,7.18
2017-10-14T06:08:13.681Z,9.93
2017-10-14T06:10:41.179Z,7.15
2017-10-14T06:13:08.663Z,4.28
2017-10-14T06:15:37.079Z,7.62
2017-10-14T06:18:04.557Z,6.70
2017-10-14T06:20:32.079Z,7.97
2017-10-14T06:23:00.312Z,7.80
2017-10-14T06:25:27.807Z,5.93
2017-10-14T06:27:56.060Z,6.53
2017-10-14T06:30:23.529Z,4.72
2017-10-14T06:32:51.025Z,4.65
2017-10-14T06:35:18.481Z,5.50
2017-10-14T06:37:45.959Z,4.45
2017-10-14T06:40:13.431Z,5.25
2017-10-14T06:42:40.930Z,7.55
2017-10-14T06:45:08.400Z,5.90
2017-10-14T06:47:36.678Z,5.75
2017-10-14T06:50:04.923Z,7.07
2017-10-14T06:52:32.388Z,7.15
2017-10-14T06:55:00.801Z,4.80
2017-10-14T06:57:29.048Z,6.85
2017-10-14T06:59:56.512Z,9.52
2017-10-14T07:02:24.777Z,6.07
2017-10-14T07:04:52.256Z,11.10
2017-10-14T07:07:20.537Z,6.10
2017-10-14T07:09:48.776Z,5.72
2017-10-14T07:12:16.281Z,11.98
2017-10-14T07:14:43.773Z,10.02
2017-10-14T07:17:11.272Z,6.55
2017-10-14T07:19:39.566Z,32.38
2017-10-14T07:22:08.801Z,8.45
2017-10-14T07:24:36.269Z,8.82
2017-10-14T07:27:03.766Z,5.83
2017-10-14T07:29:32.039Z,6.70
2017-10-14T07:31:59.530Z,5.77
2017-10-14T07:34:27.035Z,6.37
2017-10-14T07:36:54.512Z,6.90
2017-10-14T07:39:21.985Z,5.43
2017-10-14T07:41:49.469Z,8.60
2017-10-14T07:44:16.960Z,6.75
2017-10-14T07:46:44.465Z,7.20
2017-10-14T07:49:11.950Z,9.60
2017-10-14T07:51:39.426Z,7.93
2017-10-14T07:54:06.924Z,11.00
2017-10-14T07:56:34.436Z,12.30
2017-10-14T07:59:01.911Z,16.30
2017-10-14T08:01:29.399Z,18.00
2017-10-14T08:03:56.904Z,6.80
2017-10-14T08:06:24.399Z,6.83
2017-10-14T08:08:51.887Z,17.13
2017-10-14T08:11:19.379Z,8.53
2017-10-14T08:13:46.867Z,8.37
2017-10-14T08:16:14.355Z,14.93
2017-10-14T08:18:41.843Z,15.13
2017-10-14T08:21:09.311Z,16.40
2017-10-14T08:23:36.771Z,8.97
2017-10-14T08:26:04.273Z,18.20
2017-10-14T08:28:31.754Z,32.20
2017-10-14T08:30:59.261Z,17.03
2017-10-14T08:33:26.734Z,16.13
2017-10-14T08:35:54.209Z,11.23
2017-10-14T08:38:21.696Z,10.43
2017-10-14T08:40:49.940Z,22.73
2017-10-14T08:43:17.424Z,15.03
2017-10-14T08:45:44.911Z,15.80
2017-10-14T08:48:12.425Z,26.13
2017-10-14T08:50:39.898Z,17.27
2017-10-14T08:53:08.166Z,22.47
2017-10-14T08:55:35.669Z,21.70
2017-10-14T08:58:03.163Z,21.57
2017-10-14T09:00:30.674Z,20.27
2017-10-14T09:02:58.905Z,25.00
2017-10-14T09:05:26.425Z,19.43
2017-10-14T09:07:53.915Z,23.17
2017-10-14T09:10:21.414Z,26.80
2017-10-14T09:12:49.660Z,21.93
2017-10-14T09:15:17.156Z,22.17
2017-10-14T09:17:45.411Z,22.20
2017-10-14T09:20:12.884Z,23.50
2017-10-14T09:22:41.151Z,26.23
2017-10-14T09:25:09.402Z,22.30
2017-10-14T09:27:36.935Z,18.07
2017-10-14T09:30:04.428Z,20.20
2017-10-14T09:32:31.895Z,17.17
2017-10-14T09:34:59.396Z,40.07
2017-10-14T09:37:26.903Z,22.60
2017-10-14T09:39:54.367Z,22.30
2017-10-14T09:42:21.872Z,18.70
2017-10-14T09:44:50.100Z,14.63
2017-10-14T09:47:17.600Z,15.90
2017-10-14T09:49:45.840Z,18.33
2017-10-14T09:52:14.087Z,13.77
2017-10-14T09:54:41.569Z,11.97
2017-10-14T09:57:09.060Z,13.13
2017-10-14T09:59:37.300Z,20.20
2017-10-14T10:02:04.783Z,13.17
2017-10-14T10:04:33.017Z,10.40
2017-10-14T10:07:00.479Z,14.40
2017-10-14T10:09:27.981Z,15.00
2017-10-14T10:11:56.243Z,16.77
2017-10-14T10:14:25.228Z,13.50
2017-10-14T10:16:53.317Z,12.43
2017-10-14T10:19:21.600Z,11.50
2017-10-14T10:21:49.109Z,10.50
2017-10-14T10:24:17.392Z,14.00
2017-10-14T10:26:44.901Z,12.67
2017-10-14T10:29:13.678Z,13.57
2017-10-14T10:31:41.181Z,20.30
2017-10-14T10:34:09.427Z,12.77
2017-10-14T10:36:37.701Z,14.87
2017-10-14T10:39:05.922Z,12.90
2017-10-14T10:41:33.399Z,16.43
2017-10-14T10:44:01.691Z,10.97
2017-10-14T10:46:29.161Z,10.50
2017-10-14T10:48:56.653Z,12.13
2017-10-14T10:51:24.151Z,12.83
2017-10-14T10:53:51.624Z,15.33
2017-10-14T10:56:19.121Z,11.10
2017-10-14T10:58:46.579Z,9.87
2017-10-14T11:01:14.059Z,14.73
2017-10-14T11:03:41.561Z,11.53
2017-10-14T11:06:12.149Z,9.57
2017-10-14T11:08:39.653Z,8.20
2017-10-14T11:11:07.169Z,15.30
2017-10-14T11:13:34.631Z,7.30
2017-10-14T11:16:02.119Z,14.13
2017-10-14T11:18:29.602Z,13.20
2017-10-14T11:20:57.882Z,8.00
2017-10-14T11:23:26.121Z,7.23
2017-10-14T11:25:53.618Z,12.53
2017-10-14T11:28:21.877Z,15.00
2017-10-14T11:30:50.011Z,8.87
2017-10-14T11:33:17.581Z,12.73
2017-10-14T11:35:48.564Z,9.33
2017-10-14T11:38:17.689Z,11.37
2017-10-14T11:40:45.177Z,8.03
2017-10-14T11:43:12.639Z,7.20
2017-10-14T11:45:40.120Z,8.90
2017-10-14T11:48:07.618Z,6.57
2017-10-14T11:50:35.097Z,13.17
2017-10-14T11:53:02.579Z,7.50
2017-10-14T11:55:30.071Z,9.90
2017-10-14T11:57:58.769Z,6.23
2017-10-14T12:00:27.042Z,6.57
2017-10-14T12:02:55.340Z,11.70
2017-10-14T12:05:22.816Z,10.33
2017-10-14T12:07:50.294Z,9.57
2017-10-14T12:10:17.789Z,9.67
2017-10-14T12:12:46.044Z,9.80
2017-10-14T12:15:13.571Z,15.43
2017-10-14T12:17:41.046Z,5.67
2017-10-14T12:20:08.512Z,6.20
2017-10-14T12:22:35.999Z,13.37
2017-10-14T12:25:04.227Z,9.83
2017-10-14T12:27:31.716Z,9.13
2017-10-14T12:29:59.175Z,10.70
2017-10-14T12:32:26.716Z,10.83
2017-10-14T12:34:54.218Z,6.83
2017-10-14T12:37:22.451Z,6.73
2017-10-14T12:39:49.948Z,13.53
2017-10-14T12:42:18.194Z,5.57
2017-10-14T12:44:45.640Z,5.77
2017-10-14T12:47:13.157Z,7.27
2017-10-14T12:49:41.383Z,10.80
2017-10-14T12:52:08.847Z,14.00
2017-10-14T12:54:36.359Z,12.07
2017-10-14T12:57:03.823Z,5.27
2017-10-14T12:59:31.305Z,5.53
2017-10-14T13:01:58.767Z,6.30
2017-10-14T13:04:26.243Z,8.60
2017-10-14T13:06:53.724Z,5.13
2017-10-14T13:09:21.958Z,7.23
2017-10-14T13:11:49.467Z,10.60
2017-10-14T13:14:17.698Z,6.47
2017-10-14T13:16:45.190Z,5.80
2017-10-14T13:19:13.466Z,5.80
2017-10-14T13:21:40.937Z,9.40
2017-10-14T13:24:09.175Z,6.00
2017-10-14T13:26:36.690Z,5.30
2017-10-14T13:29:04.153Z,7.90
2017-10-14T13:31:31.642Z,5.00
2017-10-14T13:33:59.119Z,8.03
2017-10-14T13:36:26.609Z,8.40
2017-10-14T13:38:54.870Z,7.07
2017-10-14T13:41:23.122Z,7.30
2017-10-14T13:43:50.642Z,5.47
2017-10-14T13:46:18.116Z,7.70
2017-10-14T13:48:45.591Z,7.03
2017-10-14T13:51:13.087Z,6.63
2017-10-14T13:53:41.361Z,9.43
2017-10-14T13:56:09.587Z,12.70
2017-10-14T13:58:37.047Z,6.40
2017-10-14T14:01:04.538Z,11.10
2017-10-14T14:03:32.009Z,14.00
2017-10-14T14:06:00.252Z,9.77
2017-10-14T14:08:27.735Z,10.27
2017-10-14T14:10:56.009Z,7.73
2017-10-14T14:13:23.472Z,5.77
2017-10-14T14:15:50.943Z,7.70
2017-10-14T14:18:19.208Z,7.03
2017-10-14T14:20:46.665Z,7.70
2017-10-14T14:23:14.160Z,5.23
2017-10-14T14:25:41.647Z,4.13
2017-10-14T14:28:09.121Z,4.80
2017-10-14T14:30:36.607Z,6.33
2017-10-14T14:33:04.831Z,9.63
2017-10-14T14:35:32.348Z,6.80
2017-10-14T14:38:00.584Z,11.17
2017-10-14T14:40:28.080Z,7.30
2017-10-14T14:42:56.295Z,7.47
2017-10-14T14:45:23.815Z,7.37
2017-10-14T14:47:52.058Z,10.60
2017-10-14T14:50:19.555Z,6.53
2017-10-14T14:52:47.810Z,11.50
2017-10-14T14:55:15.300Z,8.93
2017-10-14T14:57:42.790Z,6.13
2017-10-14T15:00:10.260Z,8.60
2017-10-14T15:02:37.738Z,7.00
2017-10-14T15:05:05.220Z,8.33
2017-10-14T15:07:33.464Z,6.50
2017-10-14T15:10:00.960Z,12.10
2017-10-14T15:12:29.188Z,11.30
2017-10-14T15:14:56.686Z,137.23
2017-10-14T15:17:24.937Z,27.37
2017-10-14T15:19:52.449Z,12.63
2017-10-14T15:22:19.911Z,13.07
2017-10-14T15:24:47.371Z,8.00
2017-10-14T15:27:14.877Z,12.90
2017-10-14T15:29:42.347Z,10.73
2017-10-14T15:32:09.843Z,7.03
2017-10-14T15:34:37.308Z,11.93
2017-10-14T15:37:04.767Z,13.43
2017-10-14T15:39:32.264Z,11.33
2017-10-14T15:42:00.522Z,7.00
2017-10-14T15:44:30.484Z,10.10
2017-10-14T15:46:58.720Z,10.53
2017-10-14T15:49:26.219Z,12.43
2017-10-14T15:51:54.466Z,13.17
2017-10-14T15:54:21.955Z,5.00
2017-10-14T15:56:50.198Z,9.33
2017-10-14T15:59:17.646Z,5.80
2017-10-14T16:01:45.127Z,9.63
2017-10-14T16:04:12.583Z,7.20
2017-10-14T16:06:40.076Z,5.20
2017-10-14T16:09:07.572Z,7.90
2017-10-14T16:11:35.118Z,7.10
2017-10-14T16:14:02.627Z,8.93
2017-10-14T16:16:30.095Z,7.30
2017-10-14T16:18:58.340Z,12.73
2017-10-14T16:21:25.819Z,21.40
2017-10-14T16:23:53.311Z,32.27
2017-10-14T16:26:20.787Z,30.03
2017-10-14T16:28:48.283Z,32.77
2017-10-14T16:31:15.800Z,27.97
2017-10-14T16:33:43.302Z,27.10
2017-10-14T16:36:10.782Z,33.87
2017-10-14T16:38:39.045Z,45.30
2017-10-14T16:41:06.551Z,37.00
2017-10-14T16:43:34.044Z,46.63
2017-10-14T16:46:01.547Z,55.70
2017-10-14T16:48:29.783Z,60.33
2017-10-14T16:50:57.306Z,76.33
2017-10-14T16:53:24.788Z,59.70
2017-10-14T16:55:52.261Z,58.93
2017-10-14T16:58:19.795Z,70.83
2017-10-14T17:00:47.280Z,69.00
2017-10-14T17:03:14.754Z,57.63
2017-10-14T17:05:42.238Z,63.53
2017-10-14T17:08:09.711Z,56.00
2017-10-14T17:10:37.197Z,61.57
2017-10-14T17:13:04.683Z,129.97
2017-10-14T17:15:32.218Z,104.97
2017-10-14T17:17:59.674Z,60.03
2017-10-14T17:20:27.160Z,53.87
2017-10-14T17:22:54.655Z,41.73
2017-10-14T17:25:22.141Z,60.37
2017-10-14T17:27:49.636Z,69.23
2017-10-14T17:30:17.120Z,64.20
2017-10-14T17:32:45.414Z,60.00
2017-10-14T17:35:12.883Z,100.20
2017-10-14T17:37:40.368Z,125.53
2017-10-14T17:40:07.859Z,146.60
2017-10-14T17:42:36.117Z,154.37
2017-10-14T17:45:03.644Z,105.83
2017-10-14T17:47:31.124Z,100.13
2017-10-14T17:49:58.598Z,95.43
2017-10-14T17:52:26.118Z,75.10
2017-10-14T17:54:53.610Z,84.70
2017-10-14T17:57:21.352Z,66.60
2017-10-14T17:59:48.816Z,89.07
2017-10-14T18:02:16.337Z,65.17
2017-10-14T18:04:43.830Z,71.33
2017-10-14T18:07:11.310Z,66.03
2017-10-14T18:09:38.839Z,83.07
2017-10-14T18:12:06.383Z,43.27
2017-10-14T18:14:33.870Z,74.27
2017-10-14T18:17:01.359Z,72.60
2017-10-14T18:19:28.920Z,111.27
2017-10-14T18:21:57.169Z,90.23
2017-10-14T18:24:24.648Z,81.50
2017-10-14T18:26:52.149Z,69.00
2017-10-14T18:29:19.627Z,81.13
2017-10-14T18:31:47.176Z,92.67
2017-10-14T18:34:14.658Z,88.70
2017-10-14T18:36:42.169Z,78.20
2017-10-14T18:39:09.676Z,115.10
2017-10-14T18:41:37.180Z,132.90
2017-10-14T18:44:05.459Z,96.73
2017-10-14T18:46:33.719Z,116.33
2017-10-14T18:49:01.199Z,80.97
2017-10-14T18:51:29.468Z,78.07
2017-10-14T18:53:57.722Z,66.53
2017-10-14T18:56:33.212Z,53.50
2017-10-14T18:59:07.423Z,39.73
2017-10-14T19:01:40.242Z,35.43
2017-10-14T19:04:07.809Z,33.20
2017-10-14T19:06:35.321Z,20.40
2017-10-14T19:09:02.831Z,25.43
2017-10-14T19:11:30.351Z,19.73
2017-10-14T19:14:00.256Z,38.53
2017-10-14T19:16:37.965Z,66.23
2017-10-14T19:19:09.382Z,36.30
2017-10-14T19:21:41.080Z,92.90
2017-10-14T19:24:15.318Z,110.70
2017-10-14T19:26:49.305Z,82.20
2017-10-14T19:29:20.878Z,112.17
2017-10-14T19:31:53.620Z,141.30
2017-10-14T19:34:28.090Z,116.60
2017-10-14T19:36:59.135Z,140.77
2017-10-14T19:39:31.555Z,122.83
2017-10-14T19:42:04.084Z,104.87
2017-10-14T19:44:32.745Z,96.07
2017-10-14T19:47:02.469Z,94.53
2017-10-14T19:49:35.748Z,68.53
2017-10-14T19:52:06.603Z,47.00
2017-10-14T19:57:16.456Z,30.90
2017-10-14T19:59:44.347Z,25.80
2017-10-14T20:02:18.236Z,15.20
2017-10-14T20:04:45.721Z,18.00
2017-10-14T20:07:13.209Z,14.17
2017-10-14T20:09:42.759Z,15.10
2017-10-14T20:12:10.274Z,19.40
2017-10-14T20:17:21.783Z,24.13
2017-10-14T20:19:50.835Z,22.10
2017-10-14T20:22:19.547Z,33.43
2017-10-14T20:24:48.207Z,30.27
2017-10-14T20:27:21.765Z,32.27
2017-10-14T20:29:54.378Z,34.97
2017-10-14T20:32:26.231Z,34.97
2017-10-14T20:34:58.193Z,27.07
2017-10-14T20:37:26.170Z,24.43
2017-10-14T20:39:54.216Z,29.53
2017-10-14T20:42:22.679Z,33.47
2017-10-14T20:44:54.989Z,30.20
2017-10-14T20:47:22.448Z,59.80
2017-10-14T20:49:52.056Z,52.33
2017-10-14T20:52:19.520Z,68.40
2017-10-14T20:54:47.481Z,62.30
2017-10-14T20:57:14.968Z,50.33
2017-10-14T20:59:42.469Z,61.73
2017-10-14T21:02:10.728Z,52.63
2017-10-14T21:04:38.196Z,36.07
2017-10-14T21:07:06.456Z,25.40
2017-10-14T21:09:33.948Z,27.43
2017-10-14T21:12:02.240Z,22.40
2017-10-14T21:14:29.716Z,26.97
2017-10-14T21:16:57.208Z,26.07
2017-10-14T21:19:24.699Z,27.00
2017-10-14T21:21:52.201Z,15.83
2017-10-14T21:24:19.678Z,14.90
2017-10-14T21:26:47.127Z,13.73
2017-10-14T21:29:14.636Z,17.87
2017-10-14T21:31:42.120Z,14.10
2017-10-14T21:34:09.610Z,15.63
2017-10-14T21:36:37.070Z,26.00
2017-10-14T21:39:04.591Z,10.87
2017-10-14T21:41:32.100Z,11.10
2017-10-14T21:43:59.562Z,15.13
2017-10-14T21:46:27.051Z,15.73
2017-10-14T21:48:54.540Z,12.63
2017-10-14T21:51:22.036Z,13.53
2017-10-14T21:53:49.494Z,13.83
2017-10-14T21:56:17.012Z,10.67
2017-10-14T21:58:44.489Z,11.40
2017-10-14T22:01:11.962Z,13.13
2017-10-14T22:03:39.463Z,16.93
2017-10-14T22:06:06.940Z,23.50
2017-10-14T22:08:34.405Z,16.43
2017-10-14T22:11:01.888Z,22.23
2017-10-14T22:13:29.374Z,17.20
2017-10-14T22:15:57.628Z,25.90
2017-10-14T22:18:25.127Z,24.23
2017-10-14T22:20:52.586Z,25.63
2017-10-14T22:23:20.091Z,27.50
2017-10-14T22:25:47.591Z,22.27
2017-10-14T22:28:15.863Z,28.90
2017-10-14T22:30:44.117Z,32.13
2017-10-14T22:33:11.574Z,23.47
2017-10-14T22:35:39.088Z,39.03
2017-10-14T22:38:06.570Z,23.53
2017-10-14T22:40:34.066Z,24.03
2017-10-14T22:43:02.321Z,21.63
2017-10-14T22:45:29.803Z,33.30
2017-10-14T22:47:58.064Z,16.13
2017-10-14T22:50:25.596Z,26.25
2017-10-14T22:52:53.074Z,28.53
2017-10-14T22:55:20.543Z,18.90
2017-10-14T22:57:48.036Z,33.20
2017-10-14T23:00:15.517Z,35.43
2017-10-14T23:02:43.015Z,43.17
2017-10-14T23:05:10.495Z,29.30
2017-10-14T23:07:38.730Z,25.77
2017-10-14T23:10:06.249Z,32.07
2017-10-14T23:12:33.720Z,26.43
2017-10-14T23:15:01.219Z,19.50
2017-10-14T23:17:28.693Z,15.67
2017-10-14T23:19:56.968Z,14.17
2017-10-14T23:22:25.216Z,24.12
2017-10-14T23:24:52.683Z,12.13
2017-10-14T23:27:20.199Z,13.20
2017-10-14T23:29:47.656Z,12.63
2017-10-14T23:32:15.132Z,12.95
2017-10-14T23:34:42.631Z,11.20
2017-10-14T23:37:10.128Z,10.60
2017-10-14T23:39:37.596Z,15.10
2017-10-14T23:42:05.133Z,16.05
2017-10-14T23:44:33.386Z,13.53
2017-10-14T23:47:00.862Z,16.20
2017-10-14T23:49:29.103Z,14.60
2017-10-14T23:51:56.612Z,26.67
2017-10-14T23:54:24.096Z,22.77
2017-10-14T23:56:51.599Z,22.93
2017-10-14T23:59:19.094Z,23.58
